Time;durP1;ratioP1;P1;durP2;ratioP2;P2;SDS_P1;SDS_P2;PMS_P1;PMS_P2;Temp;Humidity;BMP_temperature;BMP_pressure;BME280_temperature;BME280_humidity;BME280_pressure;Samples;Min_cycle;Max_cycle;Signal;HPM_P1;HPM_P2
2022/03/23 00:00:43;;;;;;;42.28;26.52;;;;;;;13.26;41.38;102251.66;5076475;28;20056;-62
2022/03/23 00:03:11;;;;;;;41.22;24.50;;;;;;;13.09;41.61;102247.69;5076694;28;20059;-62
2022/03/23 00:05:41;;;;;;;42.28;24.80;;;;;;;13.02;41.55;102253.56;5076143;28;20387;-62
2022/03/23 00:08:08;;;;;;;41.63;25.38;;;;;;;13.18;41.46;102255.06;5076499;28;20067;-61
2022/03/23 00:10:36;;;;;;;42.95;24.77;;;;;;;13.48;40.73;102265.78;5076087;28;20063;-63
2022/03/23 00:13:04;;;;;;;46.50;26.05;;;;;;;13.67;40.44;102265.00;5075854;28;20515;-62
2022/03/23 00:15:32;;;;;;;41.63;25.70;;;;;;;13.49;40.44;102261.88;5076029;28;20052;-61
2022/03/23 00:17:59;;;;;;;48.67;26.67;;;;;;;13.38;41.14;102263.13;5075982;28;20059;-61
2022/03/23 00:20:26;;;;;;;41.53;26.88;;;;;;;13.54;40.75;102264.63;5075958;28;20433;-60
2022/03/23 00:22:54;;;;;;;38.38;24.73;;;;;;;13.35;41.01;102268.44;5076114;28;20082;-63
2022/03/23 00:25:21;;;;;;;37.65;24.58;;;;;;;13.24;41.18;102269.66;5075890;28;20055;-61
2022/03/23 00:27:49;;;;;;;40.40;24.85;;;;;;;13.14;41.58;102269.78;5076035;28;20055;-62
2022/03/23 00:30:17;;;;;;;39.47;24.88;;;;;;;13.29;41.29;102267.66;5056821;28;20053;-61
2022/03/23 00:32:44;;;;;;;39.58;24.10;;;;;;;13.26;41.39;102276.56;5054466;28;20053;-62
2022/03/23 00:35:12;;;;;;;39.67;23.23;;;;;;;13.37;41.33;102269.78;5061646;28;20060;-61
2022/03/23 00:37:40;;;;;;;41.55;23.85;;;;;;;13.27;41.19;102271.84;5074646;28;20049;-62
2022/03/23 00:40:08;;;;;;;40.28;23.83;;;;;;;13.12;41.52;102272.84;5075730;28;20052;-62
2022/03/23 00:42:36;;;;;;;42.30;24.70;;;;;;;13.21;41.37;102271.09;5092732;28;20068;-60
2022/03/23 00:45:06;;;;;;;41.03;24.88;;;;;;;12.92;41.83;102267.47;5095428;28;20052;-61
2022/03/23 00:47:35;;;;;;;39.38;23.75;;;;;;;12.80;41.89;102275.31;5095899;28;20052;-61
2022/03/23 00:50:03;;;;;;;35.28;23.90;;;;;;;12.85;41.94;102274.47;5095882;28;20048;-63
2022/03/23 00:52:30;;;;;;;39.90;23.60;;;;;;;12.74;41.99;102281.19;5077614;28;20055;-61
2022/03/23 00:54:58;;;;;;;37.03;23.23;;;;;;;12.67;42.14;102276.00;5089127;28;20052;-61
2022/03/23 00:57:25;;;;;;;37.55;23.05;;;;;;;12.61;42.15;102271.63;5074208;28;20059;-61
2022/03/23 00:59:53;;;;;;;38.85;23.60;;;;;;;12.26;42.73;102281.00;5075151;28;20083;-61
2022/03/23 01:02:20;;;;;;;34.22;23.13;;;;;;;12.39;42.56;102274.03;5075056;28;20044;-60
2022/03/23 01:04:48;;;;;;;39.30;22.73;;;;;;;12.50;42.44;102270.06;5075376;28;20415;-61
2022/03/23 01:07:15;;;;;;;36.60;22.13;;;;;;;12.37;42.53;102276.25;5075421;28;20055;-61
2022/03/23 01:09:43;;;;;;;35.17;22.67;;;;;;;12.61;41.89;102277.16;5075337;28;20500;-62
2022/03/23 01:12:10;;;;;;;35.63;21.55;;;;;;;12.57;41.89;102281.59;5073761;28;20063;-61
2022/03/23 01:14:37;;;;;;;36.95;21.45;;;;;;;12.69;41.76;102272.94;5075103;28;20056;-62
2022/03/23 01:17:06;;;;;;;38.08;22.58;;;;;;;12.71;41.90;102270.72;5075444;28;20056;-62
2022/03/23 01:19:34;;;;;;;33.33;21.53;;;;;;;12.36;42.38;102274.59;5075186;28;20051;-62
2022/03/23 01:22:02;;;;;;;37.28;22.23;;;;;;;12.21;42.59;102275.53;5075048;28;20055;-60
2022/03/23 01:24:29;;;;;;;35.85;22.83;;;;;;;12.16;42.85;102271.97;5073929;28;20056;-61
2022/03/23 01:26:56;;;;;;;39.55;23.15;;;;;;;12.25;42.75;102273.00;5075056;28;20048;-62
2022/03/23 01:29:24;;;;;;;37.20;22.40;;;;;;;12.36;42.10;102266.31;5063319;28;20047;-61
2022/03/23 01:31:51;;;;;;;39.85;21.13;;;;;;;12.29;42.47;102274.09;5054814;28;20072;-62
2022/03/23 01:34:18;;;;;;;32.78;21.42;;;;;;;12.28;42.56;102264.97;5054839;28;20057;-62
2022/03/23 01:36:45;;;;;;;39.92;22.98;;;;;;;11.92;43.41;102276.53;5073692;28;20056;-62
2022/03/23 01:39:13;;;;;;;36.03;21.90;;;;;;;11.78;43.47;102276.34;5074016;28;20060;-62
2022/03/23 01:41:42;;;;;;;32.47;21.10;;;;;;;11.79;43.60;102275.22;5084511;28;20050;-62
2022/03/23 01:44:17;;;;;;;32.75;21.92;;;;;;;11.84;43.33;102277.94;5093910;28;20044;-61
2022/03/23 01:47:08;;;;;;;32.58;21.17;;;;;;;11.87;43.42;102276.56;5093402;28;20051;-61
2022/03/23 01:49:37;;;;;;;35.17;20.92;;;;;;;11.90;43.10;102267.72;5095010;28;20048;-62
2022/03/23 01:52:07;;;;;;;33.15;21.30;;;;;;;12.14;42.46;102268.66;5093329;28;20138;-61
2022/03/23 01:54:36;;;;;;;33.72;20.65;;;;;;;12.29;42.16;102261.09;5091788;28;20102;-62
2022/03/23 01:57:05;;;;;;;36.92;20.58;;;;;;;11.97;42.38;102270.97;5057025;28;20059;-61
2022/03/23 01:59:34;;;;;;;38.28;20.58;;;;;;;12.20;41.92;102267.53;5057067;28;20052;-59
2022/03/23 02:02:02;;;;;;;32.97;19.95;;;;;;;11.86;42.52;102269.38;5073382;28;20056;-62
2022/03/23 02:04:33;;;;;;;35.58;21.27;;;;;;;11.91;42.44;102270.19;5073556;28;20055;-61
2022/03/23 02:07:03;;;;;;;36.97;21.38;;;;;;;12.02;42.35;102269.03;5073396;28;20415;-64
2022/03/23 02:09:31;;;;;;;31.10;19.98;;;;;;;12.03;42.26;102261.56;5072777;28;20056;-61
2022/03/23 02:12:08;;;;;;;35.80;20.73;;;;;;;12.05;42.03;102267.59;5076634;28;20071;-61
2022/03/23 02:14:36;;;;;;;32.65;19.85;;;;;;;11.68;42.94;102264.53;5076870;28;20045;-62
2022/03/23 02:17:05;;;;;;;32.95;20.73;;;;;;;11.74;42.98;102274.41;5078293;28;20055;-61
2022/03/23 02:19:33;;;;;;;33.83;20.25;;;;;;;11.79;42.61;102255.88;5077035;28;20036;-61
2022/03/23 02:22:01;;;;;;;32.50;20.63;;;;;;;11.94;42.31;102266.03;5076740;28;20048;-62
2022/03/23 02:24:30;;;;;;;34.10;20.63;;;;;;;11.68;42.85;102264.53;5078160;28;20480;-61
2022/03/23 02:26:58;;;;;;;37.40;20.65;;;;;;;11.71;42.87;102273.06;5077992;28;20074;-62
2022/03/23 02:29:31;;;;;;;35.35;20.80;;;;;;;11.74;42.99;102274.41;5065991;28;20059;-61
2022/03/23 02:32:01;;;;;;;30.95;19.60;;;;;;;11.62;42.93;102269.19;5073889;28;20045;-61
2022/03/23 02:34:28;;;;;;;33.55;22.35;;;;;;;11.58;43.13;102270.03;5077892;28;20047;-61
2022/03/23 02:36:57;;;;;;;34.13;21.17;;;;;;;11.55;43.21;102265.09;5065997;28;20052;-60
2022/03/23 02:39:28;;;;;;;33.92;20.60;;;;;;;11.44;43.13;102271.75;5077998;28;20067;-62
2022/03/23 02:41:56;;;;;;;33.95;20.25;;;;;;;11.36;43.44;102270.41;5089238;28;20052;-61
2022/03/23 02:44:27;;;;;;;31.27;20.27;;;;;;;11.33;43.49;102270.97;5097823;28;20067;-61
2022/03/23 02:46:54;;;;;;;30.33;19.75;;;;;;;11.09;43.79;102275.41;5098104;28;20402;-59
2022/03/23 02:49:22;;;;;;;32.22;20.73;;;;;;;11.17;43.69;102275.72;5087323;28;20064;-61
2022/03/23 02:51:49;;;;;;;32.20;18.85;;;;;;;11.39;43.26;102278.09;5077702;28;20075;-61
2022/03/23 03:03:01;;;;;;;30.23;18.70;;;;;;;11.07;43.82;102283.97;5057307;28;20048;-60
2022/03/23 03:05:28;;;;;;;34.22;19.23;;;;;;;10.94;43.79;102284.56;5057511;28;20048;-61
2022/03/23 03:10:42;;;;;;;36.10;19.70;;;;;;;10.86;44.04;102290.63;5057341;28;20052;-61
2022/03/23 03:13:09;;;;;;;31.25;18.17;;;;;;;10.96;43.90;102300.81;5058544;28;20052;-62
2022/03/23 03:15:36;;;;;;;36.13;18.65;;;;;;;10.99;43.52;102292.81;5077282;28;20051;-62
2022/03/23 03:18:04;;;;;;;29.92;18.17;;;;;;;10.65;43.81;102291.72;5075585;28;20064;-62
2022/03/23 03:20:31;;;;;;;31.63;17.98;;;;;;;10.54;44.63;102300.28;5077312;28;20063;-59
2022/03/23 03:22:58;;;;;;;31.60;18.08;;;;;;;10.57;44.51;102297.81;5075603;28;20083;-61
2022/03/23 03:25:26;;;;;;;30.48;18.58;;;;;;;10.64;43.93;102295.59;5076922;28;20048;-60
2022/03/23 03:27:53;;;;;;;30.83;17.80;;;;;;;10.34;44.61;102300.28;5076605;28;20055;-61
2022/03/23 03:30:20;;;;;;;29.58;17.75;;;;;;;10.50;44.44;102313.78;5077005;28;20052;-61
2022/03/23 03:32:48;;;;;;;31.60;17.33;;;;;;;10.37;44.51;102306.06;5074643;28;20056;-60
2022/03/23 03:35:15;;;;;;;27.35;17.70;;;;;;;10.12;45.20;102306.00;5052620;28;20061;-60
2022/03/23 03:37:43;;;;;;;28.70;17.73;;;;;;;9.98;45.45;102313.09;5056771;28;20064;-61
2022/03/23 03:40:11;;;;;;;29.85;17.45;;;;;;;9.99;45.64;102315.56;5056593;28;20488;-62
2022/03/23 03:42:38;;;;;;;26.42;16.75;;;;;;;10.02;45.39;102311.47;5074028;28;20044;-61
2022/03/23 03:45:06;;;;;;;31.05;17.48;;;;;;;10.23;45.12;102318.72;5075079;28;20476;-59
2022/03/23 03:47:33;;;;;;;27.42;16.40;;;;;;;10.36;44.12;102317.31;5076629;28;20056;-61
2022/03/23 03:50:01;;;;;;;23.48;15.35;;;;;;;10.33;43.66;102318.72;5076456;28;20057;-61
2022/03/23 03:52:28;;;;;;;24.10;14.98;;;;;;;10.30;43.97;102330.28;5076604;28;20049;-61
2022/03/23 03:54:56;;;;;;;24.85;15.10;;;;;;;10.43;43.67;102324.25;5075408;28;20053;-61
2022/03/23 03:57:23;;;;;;;25.92;15.15;;;;;;;10.19;43.79;102323.94;5076346;28;20048;-62
2022/03/23 03:59:51;;;;;;;24.52;14.93;;;;;;;10.33;43.58;102317.88;5074464;28;20048;-62
2022/03/23 04:02:19;;;;;;;25.75;15.52;;;;;;;10.32;43.47;102324.50;5076385;28;20052;-61
2022/03/23 04:04:46;;;;;;;21.48;14.35;;;;;;;10.36;43.39;102328.34;5075303;28;20067;-61
2022/03/23 04:07:14;;;;;;;24.55;16.55;;;;;;;10.19;43.63;102331.34;5076136;28;20052;-61
2022/03/23 04:09:41;;;;;;;24.63;15.18;;;;;;;10.27;43.59;102333.56;5076275;28;20056;-60
2022/03/23 04:12:09;;;;;;;25.38;15.48;;;;;;;9.97;44.21;102337.03;5076127;28;20047;-61
2022/03/23 04:14:36;;;;;;;22.23;15.50;;;;;;;10.00;44.29;102336.50;5075284;28;20048;-62
2022/03/23 04:17:04;;;;;;;25.60;15.95;;;;;;;10.14;44.25;102347.88;5075634;28;20068;-60
2022/03/23 04:19:32;;;;;;;23.42;15.00;;;;;;;10.15;44.05;102341.25;5075866;28;20052;-59
2022/03/23 04:21:59;;;;;;;23.90;15.60;;;;;;;10.07;44.09;102350.00;5075845;28;20052;-61
2022/03/23 04:24:26;;;;;;;29.08;15.77;;;;;;;10.15;43.91;102344.00;5075656;28;20053;-60
2022/03/23 04:26:53;;;;;;;26.65;16.20;;;;;;;10.15;43.86;102339.34;5075447;28;20052;-61
2022/03/23 04:29:24;;;;;;;25.60;15.43;;;;;;;9.85;44.66;102343.88;5065574;28;20052;-61
2022/03/23 04:31:52;;;;;;;21.13;14.85;;;;;;;9.98;44.55;102346.97;5055747;28;20062;-61
2022/03/23 04:34:20;;;;;;;26.42;14.63;;;;;;;10.03;44.21;102346.97;5054807;28;20049;-62
2022/03/23 04:36:47;;;;;;;23.05;15.05;;;;;;;10.00;44.30;102347.53;5074356;28;20047;-61
2022/03/23 04:39:14;;;;;;;25.98;14.95;;;;;;;10.15;44.01;102353.09;5074143;28;20055;-61
2022/03/23 04:41:42;;;;;;;24.83;15.07;;;;;;;9.80;44.54;102352.09;5085319;28;20059;-61
2022/03/23 04:44:09;;;;;;;27.52;15.52;;;;;;;9.86;44.72;102351.03;5095579;28;20048;-61
2022/03/23 04:46:36;;;;;;;25.13;14.43;;;;;;;10.16;44.14;102353.94;5095661;28;20036;-63
2022/03/23 04:49:04;;;;;;;27.33;14.65;;;;;;;10.10;44.35;102360.50;5095678;28;20059;-61
2022/03/23 04:51:31;;;;;;;23.95;15.25;;;;;;;10.09;44.29;102358.88;5095705;28;20055;-61
2022/03/23 04:54:00;;;;;;;25.25;15.68;;;;;;;10.13;44.24;102363.53;5095503;28;20052;-61
2022/03/23 04:56:27;;;;;;;26.33;14.57;;;;;;;10.12;44.09;102361.91;5076374;28;20051;-59
2022/03/23 04:58:56;;;;;;;24.20;14.27;;;;;;;10.19;43.91;102359.72;5073308;28;20539;-61
2022/03/23 05:01:23;;;;;;;18.95;13.68;;;;;;;10.13;43.98;102369.06;5075401;28;20056;-61
2022/03/23 05:03:52;;;;;;;28.60;14.75;;;;;;;10.10;44.27;102366.00;5073764;28;20052;-61
2022/03/23 05:06:19;;;;;;;25.65;14.50;;;;;;;10.31;43.77;102373.25;5075220;28;20043;-62
2022/03/23 05:08:47;;;;;;;25.45;14.50;;;;;;;10.14;43.94;102359.72;5075253;28;20044;-61
2022/03/23 05:11:14;;;;;;;22.25;14.60;;;;;;;10.17;43.90;102363.84;5075141;28;20056;-61
2022/03/23 05:13:41;;;;;;;20.90;14.23;;;;;;;10.23;43.82;102359.19;5073870;28;20051;-59
2022/03/23 05:16:10;;;;;;;31.25;15.18;;;;;;;10.23;43.73;102358.06;5074983;28;20048;-60
2022/03/23 05:18:37;;;;;;;23.52;13.35;;;;;;;10.18;43.50;102357.25;5075249;28;20526;-62
2022/03/23 05:21:04;;;;;;;21.08;13.75;;;;;;;9.99;43.76;102361.53;5073959;28;20052;-59
2022/03/23 05:23:32;;;;;;;21.02;13.20;;;;;;;10.19;43.33;102362.47;5074909;28;20048;-62
2022/03/23 05:26:00;;;;;;;24.25;14.52;;;;;;;10.37;43.03;102369.41;5074760;28;20372;-61
2022/03/23 05:28:31;;;;;;;23.92;15.68;;;;;;;10.08;43.76;102373.69;5071784;28;20052;-61
2022/03/23 05:30:58;;;;;;;27.15;15.68;;;;;;;10.24;43.79;102375.44;5055012;28;20056;-61
2022/03/23 05:33:26;;;;;;;24.63;14.80;;;;;;;10.12;44.01;102378.44;5054668;28;20385;-61
2022/03/23 05:35:53;;;;;;;24.30;15.13;;;;;;;10.00;44.02;102372.28;5066081;28;20353;-60
2022/03/23 05:38:20;;;;;;;23.73;14.82;;;;;;;10.05;44.16;102376.97;5075205;28;20503;-61
2022/03/23 05:40:48;;;;;;;22.15;14.55;;;;;;;10.01;44.06;102386.88;5077081;28;20048;-61
2022/03/23 05:43:15;;;;;;;22.35;14.20;;;;;;;9.85;44.40;102380.47;5094394;28;20048;-61
2022/03/23 05:45:43;;;;;;;26.63;14.25;;;;;;;10.00;44.01;102388.81;5095475;28;20059;-59
2022/03/23 05:48:10;;;;;;;25.00;14.13;;;;;;;10.11;44.00;102375.94;5081081;28;20062;-60
2022/03/23 05:50:37;;;;;;;23.77;15.23;;;;;;;10.23;43.67;102376.53;5098749;28;20063;-59
2022/03/23 05:53:07;;;;;;;22.33;13.95;;;;;;;10.28;43.75;102379.31;5098893;28;20058;-61
2022/03/23 05:55:34;;;;;;;30.30;14.30;;;;;;;10.36;43.33;102381.50;5087150;28;20055;-61
2022/03/23 05:58:03;;;;;;;25.20;14.70;;;;;;;10.34;43.25;102380.16;5078657;28;20377;-60
2022/03/23 06:00:31;;;;;;;30.27;14.53;;;;;;;10.13;43.87;102377.31;5078348;28;20057;-61
2022/03/23 06:02:59;;;;;;;30.05;14.35;;;;;;;10.18;43.87;102376.53;5078655;28;20526;-56
2022/03/23 06:05:26;;;;;;;28.65;14.52;;;;;;;10.19;43.45;102369.91;5078256;28;20045;-59
2022/03/23 06:07:53;;;;;;;26.17;15.30;;;;;;;10.16;43.51;102373.22;5078498;28;20048;-62
2022/03/23 06:10:21;;;;;;;25.67;14.90;;;;;;;10.51;42.94;102380.72;5078374;28;20045;-63
2022/03/23 06:12:48;;;;;;;45.47;28.67;;;;;;;10.35;43.42;102388.13;5077083;28;20052;-62
2022/03/23 06:15:15;;;;;;;30.23;16.15;;;;;;;10.24;43.81;102383.69;5078188;28;20516;-62
2022/03/23 06:17:43;;;;;;;30.00;14.70;;;;;;;9.79;45.24;102391.72;5078431;28;20487;-62
2022/03/23 06:20:11;;;;;;;24.25;16.45;;;;;;;9.96;45.27;102392.34;5078435;28;20049;-60
2022/03/23 06:22:38;;;;;;;30.67;16.85;;;;;;;10.24;44.70;102400.22;5078244;28;20044;-62
2022/03/23 06:25:07;;;;;;;27.30;15.90;;;;;;;10.21;44.85;102411.78;5077912;28;20049;-61
2022/03/23 06:27:34;;;;;;;24.55;15.02;;;;;;;10.11;44.88;102409.00;5076577;28;20057;-59
2022/03/23 06:30:03;;;;;;;28.95;16.13;;;;;;;9.97;45.21;102416.06;5060113;28;20527;-62
2022/03/23 06:32:30;;;;;;;31.08;15.93;;;;;;;9.77;45.85;102416.75;5058154;28;20056;-62
2022/03/23 06:34:57;;;;;;;26.40;15.32;;;;;;;9.89;45.54;102413.78;5061466;28;20082;-61
2022/03/23 06:37:25;;;;;;;24.38;14.45;;;;;;;9.87;45.47;102414.06;5077978;28;20055;-62
2022/03/23 06:39:52;;;;;;;27.65;15.68;;;;;;;9.69;45.58;102416.44;5078103;28;20049;-58
2022/03/23 06:42:19;;;;;;;27.88;15.23;;;;;;;9.61;46.07;102423.25;5093194;28;20051;-61
2022/03/23 06:44:47;;;;;;;24.33;14.93;;;;;;;9.62;46.15;102426.84;5097358;28;20048;-62
2022/03/23 06:47:14;;;;;;;28.98;15.65;;;;;;;9.62;45.96;102419.44;5098365;28;20052;-61
2022/03/23 06:49:42;;;;;;;23.67;15.30;;;;;;;9.56;46.33;102425.16;5098340;28;20063;-63
2022/03/23 06:52:09;;;;;;;28.73;15.70;;;;;;;9.63;45.92;102436.75;5098344;28;20048;-61
2022/03/23 06:54:37;;;;;;;26.40;15.32;;;;;;;9.45;46.20;102431.69;5094302;28;20048;-62
2022/03/23 06:57:04;;;;;;;27.10;14.43;;;;;;;9.81;45.46;102441.81;5077090;28;20424;-62
2022/03/23 06:59:32;;;;;;;21.58;14.27;;;;;;;9.91;44.62;102433.63;5077847;28;20063;-61
2022/03/23 07:01:59;;;;;;;37.00;15.05;;;;;;;9.83;44.60;102442.41;5077676;28;20060;-60
2022/03/23 07:04:26;;;;;;;29.52;15.15;;;;;;;9.66;44.92;102442.56;5075992;28;20052;-61
2022/03/23 07:06:54;;;;;;;23.83;14.32;;;;;;;9.87;44.78;102447.09;5077669;28;20568;-60
2022/03/23 07:09:34;;;;;;;26.65;14.43;;;;;;;10.11;44.44;102450.28;5076371;28;20055;-63
2022/03/23 07:12:07;;;;;;;27.45;14.30;;;;;;;9.97;44.38;102451.84;5077244;28;20065;-62
2022/03/23 07:14:36;;;;;;;25.63;14.90;;;;;;;10.03;44.38;102459.84;5077169;28;20056;-61
2022/03/23 07:17:04;;;;;;;27.73;15.00;;;;;;;9.78;44.89;102451.44;5077418;28;20060;-60
2022/03/23 07:19:32;;;;;;;31.38;15.38;;;;;;;9.81;44.98;102456.44;5077591;28;20049;-61
2022/03/23 07:22:00;;;;;;;28.48;14.85;;;;;;;9.88;44.85;102454.28;5077503;28;20063;-60
2022/03/23 07:24:27;;;;;;;31.52;16.20;;;;;;;10.07;44.45;102463.72;5075967;28;20414;-61
2022/03/23 07:26:55;;;;;;;26.95;15.27;;;;;;;9.84;44.69;102457.81;5077117;28;20395;-61
2022/03/23 07:29:42;;;;;;;27.60;14.45;;;;;;;10.07;44.19;102460.97;5063988;28;20048;-62
2022/03/23 07:32:09;;;;;;;27.35;14.45;;;;;;;10.09;43.84;102457.97;5057110;28;20041;-59
2022/03/23 07:34:39;;;;;;;27.38;14.82;;;;;;;10.04;43.92;102457.94;5056605;28;20060;-62
2022/03/23 07:37:06;;;;;;;24.67;13.32;;;;;;;10.13;43.86;102462.66;5076867;28;20037;-60
2022/03/23 07:39:34;;;;;;;25.88;14.20;;;;;;;10.16;43.29;102464.06;5076113;28;20067;-62
2022/03/23 07:42:02;;;;;;;23.25;13.32;;;;;;;10.45;42.89;102459.78;5089539;28;20048;-62
2022/03/23 07:44:32;;;;;;;24.67;13.07;;;;;;;10.52;42.13;102462.28;5095471;28;20056;-61
2022/03/23 07:47:01;;;;;;;23.75;13.50;;;;;;;10.68;41.87;102462.06;5096857;28;20055;-61
2022/03/23 07:49:28;;;;;;;22.88;13.50;;;;;;;10.73;41.26;102459.31;5096973;28;20052;-61
2022/03/23 07:51:57;;;;;;;21.70;13.18;;;;;;;10.68;41.31;102467.56;5095653;28;20064;-62
2022/03/23 07:54:25;;;;;;;29.98;13.45;;;;;;;10.76;41.45;102464.28;5095079;28;20052;-60
2022/03/23 07:56:52;;;;;;;21.65;12.50;;;;;;;10.88;40.98;102469.56;5076342;28;20515;-62
2022/03/23 07:59:19;;;;;;;20.08;13.23;;;;;;;11.11;40.89;102472.63;5076536;28;20111;-62
2022/03/23 08:01:46;;;;;;;22.48;12.85;;;;;;;11.11;40.95;102496.59;5076495;28;20063;-61
2022/03/23 08:04:14;;;;;;;23.90;12.75;;;;;;;11.07;40.77;102493.56;5076067;28;20052;-61
2022/03/23 08:06:41;;;;;;;26.80;13.77;;;;;;;11.18;40.58;102484.19;5076360;28;20408;-58
2022/03/23 08:09:09;;;;;;;26.73;12.25;;;;;;;11.31;39.96;102480.88;5075537;28;20081;-60
2022/03/23 08:11:41;;;;;;;24.50;13.02;;;;;;;11.29;40.02;102485.88;5076023;28;20055;-61
2022/03/23 08:14:09;;;;;;;22.27;12.05;;;;;;;11.33;40.07;102486.16;5075970;28;20052;-62
2022/03/23 08:16:36;;;;;;;23.83;12.13;;;;;;;11.51;39.71;102490.25;5074532;28;20511;-62
2022/03/23 08:19:04;;;;;;;22.48;12.00;;;;;;;11.65;39.55;102483.94;5076208;28;20053;-62
2022/03/23 08:21:32;;;;;;;23.88;12.73;;;;;;;11.81;38.93;102490.28;5074091;28;20060;-60
2022/03/23 08:24:00;;;;;;;20.83;12.18;;;;;;;11.84;38.64;102489.72;5076081;28;20055;-63
2022/03/23 08:26:28;;;;;;;23.65;12.20;;;;;;;11.86;38.31;102491.09;5073779;28;20048;-62
2022/03/23 08:28:56;;;;;;;24.35;12.73;;;;;;;11.97;38.22;102484.47;5069523;28;20041;-63
2022/03/23 08:31:23;;;;;;;22.02;12.10;;;;;;;12.20;38.04;102496.81;5056343;28;20052;-62
2022/03/23 08:33:51;;;;;;;22.00;12.00;;;;;;;12.31;38.06;102490.13;5055777;28;20523;-61
2022/03/23 08:36:18;;;;;;;20.48;12.07;;;;;;;12.58;38.04;102487.81;5070441;28;20055;-61
2022/03/23 08:38:45;;;;;;;28.90;12.95;;;;;;;12.33;37.69;102494.28;5075899;28;20419;-66
2022/03/23 08:41:14;;;;;;;28.35;13.32;;;;;;;11.95;38.40;102489.44;5080311;28;20116;-63
2022/03/23 08:43:41;;;;;;;24.90;13.63;;;;;;;12.00;38.67;102492.19;5096022;28;20060;-61
2022/03/23 08:46:10;;;;;;;27.13;14.02;;;;;;;12.26;38.20;102503.97;5095846;28;20052;-62
2022/03/23 08:48:38;;;;;;;26.85;12.88;;;;;;;12.50;37.63;102493.94;5096050;28;20052;-61
2022/03/23 08:51:08;;;;;;;24.73;13.35;;;;;;;12.55;37.38;102498.63;5078389;28;20052;-62
2022/03/23 08:53:38;;;;;;;24.83;13.80;;;;;;;12.62;37.27;102499.16;5096212;28;20056;-60
2022/03/23 08:56:08;;;;;;;24.23;13.15;;;;;;;12.68;36.98;102492.47;5079253;28;20056;-60
2022/03/23 08:58:35;;;;;;;21.98;12.35;;;;;;;12.56;36.86;102492.81;5074756;28;20565;-63
2022/03/23 09:01:03;;;;;;;26.75;13.35;;;;;;;12.82;36.48;102497.09;5075556;28;20423;-63
2022/03/23 09:03:30;;;;;;;26.20;13.60;;;;;;;12.74;36.70;102494.09;5075485;28;20048;-63
2022/03/23 09:05:59;;;;;;;24.73;12.80;;;;;;;12.82;36.96;102496.25;5075290;28;20049;-61
2022/03/23 09:08:26;;;;;;;25.35;13.05;;;;;;;12.72;36.71;102496.31;5057620;28;20052;-61
2022/03/23 09:10:55;;;;;;;23.17;13.20;;;;;;;12.90;36.66;102490.94;5075298;28;20059;-62
2022/03/23 09:13:22;;;;;;;26.27;11.75;;;;;;;13.01;35.97;102487.00;5075528;28;20072;-62
2022/03/23 09:15:50;;;;;;;25.55;12.20;;;;;;;13.16;36.33;102488.91;5074931;28;20395;-62
2022/03/23 09:18:17;;;;;;;31.52;11.88;;;;;;;13.19;35.99;102488.31;5075068;28;20479;-62
2022/03/23 09:20:45;;;;;;;17.23;10.05;;;;;;;13.48;35.17;102481.72;5074935;28;20062;-61
2022/03/23 09:23:13;;;;;;;23.10;10.68;;;;;;;13.26;34.94;102484.13;5075260;28;20049;-61
2022/03/23 09:25:40;;;;;;;27.92;10.27;;;;;;;13.19;35.15;102489.16;5073041;28;20056;-63
2022/03/23 09:28:09;;;;;;;18.63;10.25;;;;;;;13.40;34.76;102487.03;5073656;28;20056;-62
2022/03/23 09:30:38;;;;;;;;;;;;;;;13.45;34.62;102487.84;5053835;28;20057;-61
2022/03/23 09:33:06;;;;;;;20.33;10.05;;;;;;;13.70;34.35;102478.47;5055078;28;19931;-62
2022/03/23 09:35:33;;;;;;;19.40;10.32;;;;;;;13.50;34.06;102485.00;5063564;28;20052;-63
2022/03/23 09:38:03;;;;;;;18.83;9.45;;;;;;;13.68;33.99;102482.63;5075077;28;20085;-60
2022/03/23 09:40:32;;;;;;;22.48;10.27;;;;;;;13.64;33.79;102481.56;5073755;28;20059;-61
2022/03/23 09:43:02;;;;;;;20.83;9.40;;;;;;;13.84;33.73;102484.16;5053802;28;20060;-62
2022/03/23 09:48:02;;;;;;;18.45;9.73;;;;;;;13.89;33.43;102487.69;5054736;28;20049;-62
2022/03/23 09:50:32;;;;;;;21.13;9.17;;;;;;;13.93;33.65;102487.94;5055037;28;20511;-62
2022/03/23 09:53:00;;;;;;;21.92;10.52;;;;;;;14.00;33.22;102483.69;5054976;28;20381;-61
2022/03/23 09:55:27;;;;;;;14.35;9.10;;;;;;;14.18;33.31;102484.88;5054474;28;20056;-62
2022/03/23 09:57:56;;;;;;;21.20;10.02;;;;;;;14.19;33.01;102492.09;5069566;28;20049;-62
2022/03/23 10:00:27;;;;;;;16.75;9.50;;;;;;;14.09;32.98;102486.63;5070094;28;20127;-62
2022/03/23 10:02:58;;;;;;;15.18;9.57;;;;;;;14.24;32.76;102484.50;5054745;28;20558;-62
2022/03/23 10:05:32;;;;;;;16.05;9.05;;;;;;;14.29;32.27;102483.69;5054677;28;20060;-61
2022/03/23 10:08:23;;;;;;;19.40;9.68;;;;;;;14.51;32.07;102479.22;5051457;28;20064;-62
2022/03/23 10:11:27;;;;;;;16.27;9.38;;;;;;;14.53;31.88;102470.63;5054654;28;20041;-61
2022/03/23 10:14:29;;;;;;;19.70;9.88;;;;;;;14.45;31.67;102469.31;5062353;28;20760;-62
2022/03/23 10:17:24;;;;;;;19.35;9.60;;;;;;;14.31;31.82;102473.94;5040042;28;20040;-61
2022/03/23 10:19:52;;;;;;;15.98;8.48;;;;;;;14.16;31.34;102470.47;5058759;28;20057;-62
2022/03/23 10:22:19;;;;;;;20.52;8.93;;;;;;;14.13;31.25;102473.84;5074802;28;20426;-62
2022/03/23 10:24:46;;;;;;;17.60;8.88;;;;;;;14.22;31.23;102480.41;5074529;28;20063;-62
2022/03/23 10:27:17;;;;;;;21.95;9.35;;;;;;;14.25;31.61;102477.88;5074522;28;20044;-63
2022/03/23 10:29:51;;;;;;;19.52;9.65;;;;;;;14.18;31.74;102473.78;5060900;28;20056;-63
2022/03/23 10:32:22;;;;;;;20.25;9.15;;;;;;;14.06;31.79;102481.69;5057146;28;20052;-61
2022/03/23 10:34:56;;;;;;;27.30;9.73;;;;;;;14.33;31.63;102470.88;5061708;28;20059;-63
2022/03/23 10:37:27;;;;;;;22.60;9.60;;;;;;;14.60;31.65;102465.53;5076849;28;20040;-61
2022/03/23 10:39:57;;;;;;;26.23;9.38;;;;;;;14.74;31.11;102466.44;5077732;28;20055;-63
2022/03/23 10:42:31;;;;;;;20.70;9.75;;;;;;;14.99;30.54;102466.09;5093915;28;20052;-64
2022/03/23 10:45:08;;;;;;;17.83;9.15;;;;;;;14.95;30.84;102459.47;5098184;28;20074;-62
2022/03/23 10:47:38;;;;;;;16.33;9.82;;;;;;;15.03;30.69;102457.97;5098002;28;20043;-63
2022/03/23 10:50:13;;;;;;;15.02;9.98;;;;;;;14.98;30.83;102456.09;5096352;28;20060;-62
2022/03/23 10:52:50;;;;;;;21.05;10.10;;;;;;;15.07;30.00;102453.47;5097751;28;20052;-62
2022/03/23 10:55:17;;;;;;;21.95;10.43;;;;;;;15.15;30.32;102450.81;5088534;28;20052;-62
2022/03/23 10:57:44;;;;;;;19.08;10.70;;;;;;;15.43;30.08;102444.28;5076281;28;20052;-62
2022/03/23 11:00:18;;;;;;;17.10;10.07;;;;;;;15.15;29.90;102450.03;5077567;28;20056;-62
2022/03/23 11:02:46;;;;;;;14.77;9.35;;;;;;;15.15;29.88;102445.28;5077558;28;20064;-61
2022/03/23 11:05:36;;;;;;;16.55;10.05;;;;;;;15.24;30.13;102442.63;5075743;28;20053;-62
2022/03/23 11:08:11;;;;;;;20.80;9.77;;;;;;;15.43;28.99;102446.25;5076428;28;20056;-62
2022/03/23 11:16:27;;;;;;;18.95;9.90;;;;;;;15.51;28.68;102429.72;5077167;28;20057;-63
2022/03/23 11:18:59;;;;;;;18.67;10.50;;;;;;;15.59;28.54;102429.00;5077150;28;20056;-62
2022/03/23 11:21:28;;;;;;;16.30;9.57;;;;;;;15.72;28.56;102422.66;5076078;28;20055;-62
2022/03/23 11:23:56;;;;;;;17.23;9.98;;;;;;;15.74;28.21;102423.16;5059149;28;20049;-62
2022/03/23 11:26:23;;;;;;;15.85;10.18;;;;;;;15.89;27.72;102422.03;5076751;28;20052;-61
2022/03/23 11:28:52;;;;;;;23.90;12.07;;;;;;;15.90;27.18;102420.09;5070834;28;20040;-63
2022/03/23 11:31:20;;;;;;;20.67;10.85;;;;;;;15.94;26.95;102412.78;5055614;28;20060;-63
2022/03/23 11:33:51;;;;;;;21.50;11.63;;;;;;;16.04;26.81;102407.03;5038990;28;20076;-63
2022/03/23 11:36:19;;;;;;;16.98;10.60;;;;;;;15.60;27.26;102411.19;5071783;28;20522;-63
2022/03/23 11:38:52;;;;;;;20.02;11.10;;;;;;;15.85;27.11;102409.09;5075412;28;20079;-64